Tiempo atmosférico en la estación meteorológica de Alicante/Alacant, Alacant/Alicante (81 m.)



Fecha
DESCASC
Temp. máxima en grados centígrados (hora)
DESCASC
Temp. mínima en grados centígrados (hora)
DESCASC
Temp. media en grados centígrados
DESCASC
Racha de viento máxima en m/sg (hora)
DESCASC
Velocidad máxima media en intervalos de 10 minutos(hora)
DESCASC
Precipitaciones diarias en mm
DESCASC
Precipitaciones de 00:00 a 06:00 en mm
DESCASC
Precipitaciones de 06:00 a 12:00 en mm
DESCASC
Precipitaciones de 12:00 a 18:00 en mm
DESCASC
Precipitaciones de 18:00 a 24:00 en mm
DESCASC
19-01-2020 14 (10:40) 7.9 (17:50) 11 17.78 (16:50) 8.61 (17:10) 0.6 0 0 0.4 0.2
18-01-2020 16.8 (15:20) 9.3 (08:50) 13 7.5 (17:10) 4.44 (16:30) 0 0 0 0 0
17-01-2020 20.8 (15:00) 5.4 (07:00) 13.1 10 (11:50) 4.17 (12:00) 0 0 0 0 0
16-01-2020 17.9 (15:40) 5.9 (00:00) 11.9 4.72 (14:10) 2.5 (14:10) 0 0 0 0 0
15-01-2020 18.2 (15:30) 3.7 (00:00) 11 7.22 (15:40) 3.89 (16:10) 0 0 0 0 0
14-01-2020 17.2 (13:20) 2.4 (00:00) 9.8 6.94 (17:20) 4.17 (15:00) 0 0 0 0 0
13-01-2020 15.7 (15:10) 2.3 (00:00) 9 7.78 (16:10) 4.17 (14:40) 0 0 0 0 0
12-01-2020 14.4 (14:10) 2.3 (00:00) 8.3 6.94 (12:10) 4.44 (12:10) 0 0 0 0 0
11-01-2020 16.8 (14:00) 6.1 (00:00) 11.4 5.83 (15:40) 3.33 (15:40) 0 0 0 0 0
10-01-2020 16.9 (13:40) 5.5 (00:00) 11.2 10.83 (17:50) 6.11 (17:50) 0 0 0 0 0
09-01-2020 17.2 (14:20) 5.7 (00:00) 11.5 5.28 (17:10) 2.78 (14:50) 0 0 0 0 0
08-01-2020 14.6 (16:00) 2.5 (00:00) 8.6 5 (11:10) 3.33 (11:20) 0 0 0 0 0
07-01-2020 15.8 (13:50) 3.5 (00:00) 9.7 4.17 (14:50) 2.5 (13:20) 0 0 0 0 0
06-01-2020 16 (14:40) 2.2 (00:00) 9.1 5.28 (13:50) 3.06 (14:20) 0 0 0 0 0
05-01-2020 18 (14:30) 3.6 (00:00) 10.8 4.44 (15:00) 2.78 (15:00) 0 0 0 0 0
04-01-2020 15.8 (13:10) 5.4 (00:00) 10.6 4.17 (14:30) 2.22 (13:40) 0 0 0 0 0
03-01-2020 15.5 (15:40) 2.6 (00:00) 9 3.61 (16:40) 2.22 (17:00) 0 0 0 0 0
02-01-2020 14.9 (14:50) 6.1 (00:00) 10.5 5.56 (14:40) 2.5 (11:10) 0 0 0 0 0
01-01-2020 16.3 (14:50) 4.3 (00:00) 10.3 5 (14:10) 3.33 (14:10) 0 0 0 0 0
31-12-2019 17 (14:20) 6 (00:00) 11.5 4.17 (15:20) 2.22 (15:20) 0 0 0 0 0
30-12-2019 16.4 (13:10) 5.8 (00:00) 11.1 4.72 (15:00) 2.5 (13:40) 0 0 0 0 0
29-12-2019 15.9 (14:00) 5.5 (00:00) 10.7 4.17 (15:50) 2.5 (15:50) 0 0 0 0 0
28-12-2019 16 (15:10) 6 (00:00) 11 3.61 (14:00) 1.94 (13:40) 0 0 0 0 0
27-12-2019 19.5 (14:40) 6.8 (00:00) 13.2 3.89 (16:20) 2.78 (15:20) 0 0 0 0 0
26-12-2019 22.3 (13:40) 7.7 (00:00) 15 5 (16:20) 2.5 (16:20) 0 0 0 0 0
25-12-2019 21.8 (13:50) 7.4 (00:00) 14.6 3.33 (15:00) 1.94 (14:50) 0 0 0 0 0
24-12-2019 25 (14:10) 10.3 (00:00) 17.7 5.83 (14:40) 3.33 (14:40) 0 0 0 0 0
23-12-2019 22.9 (15:30) 12.3 (00:00) 17.6 11.94 (05:40) 4.17 (03:10) 0 0 0 0 0

Gráficas

Temp. máximas Temp. mínimas Temp. medias Precipitaciones Rachas de viento máximas Velocidades máximas media en intervalos de 10 minutos

Datos horarios

Fecha y hora oficial Temperatura (ºC) Velocidad del viento (km/h) Dirección del viento Racha (km/h) Dirección de racha Precipitación (mm) Presión (hPa) Tendencia (hPa) Humedad (%)
2020-01-21 23:00:00 11.5 6 Sudeste 15 Sudeste 1 1007.8 1.8 87
2020-01-21 22:00:00 11.8 7 Este 21 Este 0.8 1007.3 1.9 86
2020-01-21 21:00:00 11.2 3 Nordeste 9 Nordeste 0 1006.7 2 91
2020-01-21 20:00:00 11.7 4 Norte 7 Nordeste 0 1006 2.3 87
2020-01-21 19:00:00 11.8 5 Nordeste 10 Este 0 1005.4 2.6 81
2020-01-21 18:00:00 12.1 4 Este 14 Sudeste 0 1004.7 2.8 82
2020-01-21 17:00:00 12.8 7 Sudeste 24 Sur 0 1003.7 1.9 80
2020-01-21 16:00:00 14.2 11 Sudeste 23 Sudeste 0 1002.8 0.9 75
2020-01-21 15:00:00 15.3 9 Sudeste 28 Este 0 1001.9 -0.5 75
2020-01-21 14:00:00 15.3 16 Este 31 Este 0 1001.8 -1 79
2020-01-21 13:00:00 15 17 Este 42 Nordeste 0 1001.9 -0.6 80
2020-01-21 12:00:00 14.2 23 Este 44 Nordeste 0 1002.4 0.4 80
2020-01-21 11:00:00 13.2 25 Nordeste 43 Este 0 1002.8 0.7 79
2020-01-21 10:00:00 11.9 17 Nordeste 38 Nordeste 0.6 1002.5 0.7 87
2020-01-21 09:00:00 11.9 15 Nordeste 38 Este 0.8 1002 -0.3 89
2020-01-21 08:00:00 12.9 25 Nordeste 47 Nordeste 0.2 1002.1 -0.1 79
2020-01-21 07:00:00 9.9 4 Noroeste 15 Norte 1.2 1001.8 -0.9 94
2020-01-21 06:00:00 9.2 8 Oeste 23 Sudoeste 0 1002.3 -2.2 88
2020-01-21 05:00:00 10.8 14 Nordeste 31 Este 2.6 1002.2 -2.4 87
2020-01-21 04:00:00 9.8 10 Norte 27 Norte 0.2 1002.7 -3.3 83
2020-01-21 03:00:00 10.8 16 Nordeste 45 Nordeste 0.8 1004.5 -2.8 85
2020-01-21 02:00:00 10.2 10 Norte 22 Nordeste 0.8 1004.6 -2.6 87
2020-01-21 01:00:00 9.4 8 Norte 13 Nordeste 0.2 1006 -1.6 85
2020-01-21 00:00:00 9.6 7 Nordeste 13 Nordeste 0 1007.3 -0.2 85
2020-01-20 23:00:00 10 9 Nordeste 18 Norte 0.2 1007.2 -0.4 89
2020-01-20 22:00:00 10.1 4 Este 15 Nordeste 5.2 1007.6 0.7 94
2020-01-20 21:00:00 9.3 2 Oeste 8 Noroeste 0 1007.5 1.5 93
2020-01-20 20:00:00 9.5 3 Noroeste 9 Noroeste 3.2 1007.6 1.5 92
2020-01-20 19:00:00 10.3 4 Norte 18 Norte 2.2 1006.9 0.8 89
2020-01-20 18:00:00 10.8 8 Norte 25 Norte 0 1006 0 73
2020-01-20 17:00:00 11.7 14 Nordeste 25 Nordeste 0 1006.1 -0.3 78
2020-01-20 16:00:00 11.7 11 Nordeste 33 Nordeste 0 1006.1 -1.1 81
2020-01-20 15:00:00 12.9 14 Nordeste 33 Este 0 1006 -1.2 80
2020-01-20 14:00:00 12.9 5 Norte 26 Nordeste 1 1006.4 -0.9 80
2020-01-20 13:00:00 12.6 13 Nordeste 34 Nordeste 0.2 1007.2 0.7 82
2020-01-20 12:00:00 10.5 13 Norte 26 Nordeste 0.6 1007.2 0.9 83
2020-01-20 11:00:00 7.9 13 Norte 35 Nordeste 6.2 1007.3 1.4 86
2020-01-20 10:00:00 7.4 7 Norte 34 Norte 5.4 1006.5 2.1 90
2020-01-20 09:00:00 7.5 12 Norte 32 Norte 1 1006.3 2.5 85
2020-01-20 08:00:00 8 8 Nordeste 47 Nordeste 1.2 1005.9 2 85
2020-01-20 07:00:00 8.5 30 Nordeste 64 Nordeste 0.4 1004.4 -0.1 73
2020-01-20 06:00:00 7 24 Norte 62 Nordeste 0 1003.8 -1.5 74
2020-01-20 05:00:00 7.8 19 Norte 50 Nordeste 0 1003.9 -2 70
2020-01-20 04:00:00 8.5 25 Nordeste 50 Nordeste 0.4 1004.5 -1.3 68
2020-01-20 03:00:00 8.3 17 Nordeste 46 Nordeste 0 1005.3 -0.6 75
2020-01-20 02:00:00 9.3 26 Nordeste 53 Nordeste 0 1005.9 0.4 64
2020-01-20 01:00:00 9.5 22 Nordeste 49 Nordeste 0 1005.8 0.4 61
2020-01-20 00:00:00 9.6 13 Nordeste 42 Nordeste 0 1005.9 0.8 68
2020-01-19 23:00:00 10 22 Nordeste 38 Nordeste 0 1005.5 0.4 62
2020-01-19 22:00:00 9.7 16 Nordeste 44 Norte 0 1005.4 0.4 66
2020-01-19 21:00:00 9 21 Norte 41 Norte 0 1005.1 0.7 69
2020-01-19 20:00:00 9 18 Norte 52 Norte 0.2 1005.1 1.1 67
2020-01-19 19:00:00 9.4 17 Norte 48 Noroeste 0 1005 1.6 70
2020-01-19 18:00:00 8.1 17 Norte 63 Noroeste 0.4 1004.4 0.9 76
2020-01-19 17:00:00 9.1 27 Norte 64 Norte 0 1004 0.2 71
2020-01-19 16:00:00 11.7 26 Norte 53 Norte 0 1003.4 -0.9 53
2020-01-19 15:00:00 11.7 23 Norte 41 Norte 0 1003.5 -1.5 52
2020-01-19 14:00:00 12.4 16 Norte 39 Norte 0 1003.8 -1.3 52
2020-01-19 13:00:00 13 15 Norte 38 Norte 0 1004.3 -0.3 53
2020-01-19 12:00:00 13.2 17 Norte 34 Norte 0 1005 0.8 56
2020-01-19 11:00:00 13.4 17 Norte 29 Norte 0 1005.1 0.8 57
2020-01-19 10:00:00 12.8 11 Noroeste 23 Noroeste 0 1004.6 0.4 58
2020-01-19 09:00:00 11.3 10 Norte 22 Noroeste 0 1004.2 -0.5 62
2020-01-19 08:00:00 11.4 12 Noroeste 30 Noroeste 0 1004.3 -1.5 62
2020-01-19 07:00:00 12 10 Noroeste 30 Noroeste 0 1004.2 -3.1 61
2020-01-19 06:00:00 12.1 11 Noroeste 22 Noroeste 0 1004.7 -3.2 61
2020-01-19 05:00:00 12.9 6 Oeste 26 Noroeste 0 1005.8 -3 61
2020-01-19 04:00:00 10.4 8 Oeste 19 Oeste 0 1007.3 -2.9 71
2020-01-19 03:00:00 9.3 5 Oeste 11 Noroeste 0 1007.9 -3 78
2020-01-19 02:00:00 9.9 0 Calma 8 Sur 0 1008.8 -2.5 75
2020-01-19 01:00:00 9.9 3 Norte 12 Norte 0 1010.2 -1.6 73
2020-01-19 00:00:00 9.7 6 Norte 9 Norte 0 1010.9 -1.9 79
2020-01-18 23:00:00 10 2 Noroeste 9 Sudoeste 0 1011.3 -2.4 78
2020-01-18 22:00:00 11.5 5 Sudoeste 9 Oeste 0 1011.8 -2.1 74
2020-01-18 21:00:00 11.7 2 Sudoeste 6 Sudeste 0 1012.8 -1.7 73
2020-01-18 20:00:00 11.9 3 Sudoeste 15 Sudoeste 0 1013.7 -1.7 69
2020-01-18 19:00:00 12.6 7 Sudoeste 13 Sur 0 1013.9 -2.2 64
2020-01-18 18:00:00 13.8 10 Sur 27 Sudoeste 0 1014.5 -2.3 58
2020-01-18 17:00:00 15.1 12 Sudoeste 23 Sudoeste 0 1015.4 -2.5 52
2020-01-18 16:00:00 16.1 9 Sudoeste 21 Sudoeste 0 1016.1 -3.6 49
2020-01-18 15:00:00 16.4 5 Sudoeste 15 Sur 0 1016.8 -4.5 49
2020-01-18 14:00:00 15.5 6 Sudoeste 14 Sudoeste 0 1017.9 -3.8 51
2020-01-18 13:00:00 14.1 5 Sudoeste 11 Sur 0 1019.7 -2.2 60
2020-01-18 12:00:00 12.8 2 Oeste 7 Noroeste 0 1021.3 -0.2 62
2020-01-18 11:00:00 11.3 3 Oeste 10 Noroeste 0 1021.7 0.8 65
2020-01-18 10:00:00 10.5 4 Oeste 8 Oeste 0 1021.9 1.6 63
2020-01-18 09:00:00 9.4 3 Oeste 6 Oeste 0 1021.5 1.4 69
2020-01-18 08:00:00 9.5 4 Oeste 7 Oeste 0 1020.9 0.5 68
2020-01-18 07:00:00 10 2 Noroeste 6 Noroeste 0 1020.3 -0.6 67
2020-01-18 06:00:00 10.8 3 Oeste 10 Nordeste 0 1020.1 -1.4 63
2020-01-18 05:00:00 12.4 6 Nordeste 15 Nordeste 0 1020.4 -1.5 56
2020-01-18 04:00:00 12.7 5 Norte 16 Norte 0 1020.9 -1.1 55
2020-01-18 03:00:00 12.4 5 Noroeste 15 Noroeste 0 1021.5 -0.8 56
2020-01-18 02:00:00 12 8 Noroeste 15 Noroeste 0 1021.9 -0.2 59
2020-01-18 01:00:00 12 6 Noroeste 14 Oeste 0 1022 0 58
2020-01-18 00:00:00 12.5 8 Noroeste 17 Noroeste 0 1022.3 1 55
2020-01-17 23:00:00 11.5 4 Noroeste 11 Noroeste 0 1022.1 1.1 58
2020-01-17 22:00:00 11.5 2 Sudoeste 9 Noroeste 0 1022 1.6 58
2020-01-17 21:00:00 13.2 6 Noroeste 10 Noroeste 0 1021.3 2 52
2020-01-17 20:00:00 15.4 7 Noroeste 22 Oeste 0 1021 2.2 45
2020-01-17 19:00:00 16.6 8 Noroeste 19 Noroeste 0 1020.4 1.8 41
2020-01-17 18:00:00 17.4 9 Noroeste 24 Noroeste 0 1019.3 0.9 40
2020-01-17 17:00:00 18.3 6 Noroeste 23 Noroeste 0 1018.8 -0.3 38
2020-01-17 16:00:00 19.2 15 Noroeste 31 Noroeste 0 1018.6 -1.4 37
2020-01-17 15:00:00 20.7 10 Noroeste 30 Noroeste 0 1018.4 -2.5 34
2020-01-17 14:00:00 20.1 12 Noroeste 35 Oeste 0 1019.1 -1.6 36
2020-01-17 13:00:00 19 15 Oeste 33 Oeste 0 1020 -0.1 41
2020-01-17 12:00:00 17.7 15 Oeste 36 Noroeste 0 1020.9 1.4 43
2020-01-17 11:00:00 15.2 8 Oeste 16 Oeste 0 1020.7 1.2 42
2020-01-17 10:00:00 11.8 4 Oeste 11 Noroeste 0 1020.1 1.7 52
2020-01-17 09:00:00 6.8 5 Oeste 10 Sudoeste 0 1019.5 1.3 74
2020-01-17 08:00:00 5.7 4 Oeste 8 Sudoeste 0 1019.5 1.2 79
2020-01-17 07:00:00 5.4 5 Sudoeste 8 Sudoeste 0 1018.4 -0.1 81
2020-01-17 06:00:00 5.9 4 Oeste 7 Oeste 0 1018.2 -0.3 80
2020-01-17 05:00:00 6.2 4 Oeste 9 Oeste 0 1018.3 0 80
2020-01-17 04:00:00 6.7 3 Oeste 10 Noroeste 0 1018.5 0 80
2020-01-17 03:00:00 6.6 5 Oeste 9 Noroeste 0 1018.5 -0.4 81
2020-01-17 02:00:00 6.7 3 Noroeste 8 Oeste 0 1018.3 -0.4 83
2020-01-17 01:00:00 7 3 Oeste 8 Noroeste 0 1018.5 0 83
2020-01-17 00:00:00 7.2 4 Oeste 8 Oeste 0 1018.9 0.6 84
2020-01-16 23:00:00 7.5 4 Noroeste 7 Noroeste 0 1018.7 0.5 85
2020-01-16 22:00:00 8.1 3 Noroeste 5 Noroeste 0 1018.5 0.7 82
2020-01-16 21:00:00 9.5 3 Noroeste 8 Norte 0 1018.3 1 83
2020-01-16 20:00:00 10.5 4 Noroeste 7 Norte 0 1018.2 1.2 83
2020-01-16 19:00:00 11.8 4 Norte 5 Sudeste 0 1017.8 0.7 76
2020-01-16 18:00:00 13.9 4 Sudeste 10 Sudeste 0 1017.3 0.4 67
2020-01-16 17:00:00 15.7 5 Sudeste 8 Sudeste 0 1017 -0.4 61
2020-01-16 16:00:00 17.7 6 Sudeste 10 Sudeste 0 1017.1 -1.3 50
2020-01-16 15:00:00 16.9 6 Nordeste 17 Este 0 1016.9 -2.3 51
2020-01-16 14:00:00 16.7 6 Este 13 Este 0 1017.4 -1.7 54
2020-01-16 13:00:00 16.1 6 Este 16 Este 0 1018.4 -0.4 65
2020-01-16 12:00:00 15.8 6 Este 15 Este 0 1019.2 0.6 66
2020-01-16 11:00:00 13.5 4 Nordeste 8 Nordeste 0 1019.1 1 63
2020-01-16 10:00:00 9.1 2 Norte 5 Norte 0 1018.8 1.4 80
2020-01-16 09:00:00 6.2 4 Noroeste 5 Noroeste 0 1018.6 1.3 85
2020-01-16 08:00:00 6.3 3 Noroeste 6 Noroeste 0 1018.1 0.8 84
2020-01-16 07:00:00 7.2 2 Sudeste 9 Noroeste 0 1017.4 0.1 80
2020-01-16 06:00:00 8.2 4 Noroeste 9 Oeste 0 1017.3 0 74
2020-01-16 05:00:00 9 5 Oeste 15 Oeste 0 1017.3 -0.1 70
2020-01-16 04:00:00 8.7 6 Noroeste 15 Noroeste 0 1017.3 -0.4 71
2020-01-16 03:00:00 8.1 5 Noroeste 10 Noroeste 0 1017.3 -0.5 73
2020-01-16 02:00:00 8.5 5 Noroeste 9 Noroeste 0 1017.4 -0.7 69
2020-01-16 01:00:00 9 5 Noroeste 12 Noroeste 0 1017.7 -0.3 66
2020-01-16 00:00:00 9.2 5 Noroeste 12 Noroeste 0 1017.8 0 64
2020-01-15 23:00:00 8.2 4 Noroeste 12 Noroeste 0 1018.1 0.3 68
2020-01-15 22:00:00 8.1 4 Oeste 9 Noroeste 0 1018 0.7 68
2020-01-15 21:00:00 9.2 3 Oeste 6 Norte 0 1017.8 1.3 73
2020-01-15 20:00:00 10.6 4 Norte 7 Norte 0 1017.8 1.9 75
2020-01-15 19:00:00 12.4 4 Nordeste 13 Sur 0 1017.3 1.7 67
2020-01-15 18:00:00 14.3 8 Sur 19 Sudoeste 0 1016.5 1.1 62
2020-01-15 17:00:00 16.2 9 Sudoeste 24 Sudoeste 0 1015.9 0.1 45
2020-01-15 16:00:00 17.9 13 Sudoeste 26 Sudoeste 0 1015.6 -0.8 38
2020-01-15 15:00:00 17.5 12 Sudoeste 22 Sudoeste 0 1015.4 -1.5 40
2020-01-15 14:00:00 17.6 10 Sudoeste 21 Sur 0 1015.8 -1.2 39
2020-01-15 13:00:00 17.2 11 Sudoeste 20 Sudoeste 0 1016.4 0.4 41
2020-01-15 12:00:00 15.2 4 Sur 9 Sudoeste 0 1016.9 1.6 48
2020-01-15 11:00:00 10.8 4 Sudoeste 8 Sudoeste 0 1017 2.2 65
2020-01-15 10:00:00 7.4 0 Calma 6 Noroeste 0 1016 1.7 77
2020-01-15 09:00:00 4.1 3 Sur 5 Sur 0 1015.3 1.8 86
2020-01-15 08:00:00 4 4 Noroeste 7 Noroeste 0 1014.8 1.2 83
2020-01-15 07:00:00 3.9 2 Noroeste 6 Oeste 0 1014.3 0.6 82
2020-01-15 06:00:00 3.9 2 Oeste 6 Norte 0 1013.5 -0.1 81
2020-01-15 05:00:00 3.9 4 Noroeste 7 Noroeste 0 1013.6 0.1 80
2020-01-15 04:00:00 4.5 3 Noroeste 7 Oeste 0 1013.7 -0.1 78
2020-01-15 03:00:00 5.3 4 Noroeste 10 Noroeste 0 1013.6 0 74
2020-01-15 02:00:00 4.1 3 Noroeste 8 Noroeste 0 1013.5 -0.1 77
2020-01-15 01:00:00 4.8 3 Oeste 8 Noroeste 0 1013.8 0.3 77
2020-01-15 00:00:00 5.3 4 Oeste 8 Oeste 0 1013.6 0.1 75
2020-01-14 23:00:00 5.5 3 Oeste 7 Oeste 0 1013.6 0.2 76
2020-01-14 22:00:00 6.3 3 Oeste 6 Oeste 0 1013.5 0.7 79
2020-01-14 21:00:00 7.9 3 Noroeste 5 Nordeste 0 1013.5 1.4 80
2020-01-14 20:00:00 9.5 3 Norte 9 Sudoeste 0 1013.4 1.8 78
2020-01-14 19:00:00 10.9 4 Oeste 12 Sudoeste 0 1012.8 1.4 76
2020-01-14 18:00:00 12.8 8 Sudoeste 25 Sur 0 1012.1 0.7 66
2020-01-14 17:00:00 14.8 11 Sudoeste 24 Sur 0 1011.6 -0.3 46
2020-01-14 16:00:00 17 12 Sudoeste 23 Sudoeste 0 1011.4 -1.3 33
2020-01-14 15:00:00 17 15 Sur 24 Sur 0 1011.4 -2.2 34
2020-01-14 14:00:00 16.9 10 Sudoeste 21 Sur 0 1011.9 -2.1 37
2020-01-14 13:00:00 16.9 5 Sur 10 Sur 0 1012.7 -0.8 30
2020-01-14 12:00:00 14.4 5 Sur 9 Sudoeste 0 1013.6 0.5 39
2020-01-14 11:00:00 11 3 Sudoeste 9 Sudoeste 0 1014 1.2 45
2020-01-14 10:00:00 6.3 4 Noroeste 7 Noroeste 0 1013.5 1.3 67
2020-01-14 09:00:00 2.8 4 Oeste 8 Oeste 0 1013.1 1.1 79
2020-01-14 08:00:00 2.4 3 Noroeste 6 Oeste 0 1012.8 0.7 79
2020-01-14 07:00:00 3.3 3 Noroeste 7 Noroeste 0 1012.2 0.2 78
2020-01-14 06:00:00 4 5 Oeste 7 Oeste 0 1012 -0.2 75
2020-01-14 05:00:00 4.6 3 Noroeste 10 Noroeste 0 1012.1 -0.4 72
2020-01-14 04:00:00 4.1 3 Noroeste 7 Noroeste 0 1012 -1 73
2020-01-14 03:00:00 4.8 4 Oeste 7 Sudoeste 0 1012.2 -1.1 72
2020-01-14 02:00:00 5.4 3 Oeste 12 Oeste 0 1012.5 -1 69
2020-01-14 01:00:00 5.1 4 Oeste 7 Oeste 0 1013 -0.9 73
2020-01-14 00:00:00 5.9 2 Oeste 9 Sudoeste 0 1013.3 -0.9 71
2020-01-13 23:00:00 5.6 4 Sudoeste 9 Oeste 0 1013.5 -0.7 75
2020-01-13 22:00:00 6.7 5 Oeste 9 Oeste 0 1013.9 -0.2 70
2020-01-13 21:00:00 8.7 4 Oeste 15 Sudoeste 0 1014.2 0.5 71
2020-01-13 20:00:00 10.1 5 Sudoeste 10 Sudoeste 0 1014.2 0.6 75
2020-01-13 19:00:00 10.7 2 Sudoeste 8 Sudoeste 0 1014.1 0.5 67
2020-01-13 18:00:00 12.7 6 Sudoeste 18 Sudoeste 0 1013.7 -0.4 59
2020-01-13 17:00:00 14.1 11 Sudoeste 28 Sudoeste 0 1013.6 -1.3 54
2020-01-13 16:00:00 14.9 13 Sudoeste 27 Sudoeste 0 1013.6 -2.7 46
2020-01-13 15:00:00 15.5 14 Sudoeste 26 Sur 0 1014.1 -3.5 46
2020-01-13 14:00:00 15.4 12 Sur 26 Sudoeste 0 1014.9 -3.1 41
2020-01-13 13:00:00 14.7 12 Sur 25 Sudoeste 0 1016.3 -1.5 41
2020-01-13 12:00:00 12.4 11 Sur 20 Sur 0 1017.6 0 49
2020-01-13 11:00:00 8.4 5 Sudoeste 15 Oeste 0 1018 0.4 65
2020-01-13 10:00:00 4.8 4 Oeste 13 Oeste 0 1017.8 0.4 76
2020-01-13 09:00:00 2.5 5 Oeste 13 Oeste 0 1017.6 0.3 82
2020-01-13 08:00:00 2.4 3 Oeste 13 Oeste 0 1017.6 -0.3 83
2020-01-13 07:00:00 3 3 Noroeste 12 Oeste 0 1017.4 -1.1 82
2020-01-13 06:00:00 3.4 5 Noroeste 15 Noroeste 0 1017.3 -1.6 81
2020-01-13 05:00:00 3.5 5 Oeste 11 Noroeste 0 1017.9 -1.4 85
2020-01-13 04:00:00 4.4 5 Oeste 11 Noroeste 0 1018.5 -1.7 86
2020-01-13 03:00:00 5 5 Noroeste 11 Noroeste 0 1018.9 -1.8 86
2020-01-13 02:00:00 5.5 4 Oeste 14 Noroeste 0 1019.3 -1.7 84
2020-01-13 01:00:00 5.5 6 Noroeste 12 Oeste 0 1020.2 -0.7 86
2020-01-13 00:00:00 5.2 4 Noroeste 9 Noroeste 0 1020.7 0.1 88
2020-01-12 23:00:00 5.5 4 Noroeste 8 Noroeste 0 1021 0.4 87
2020-01-12 22:00:00 6.2 4 Noroeste 10 Noroeste 0 1020.9 0.8 85
2020-01-12 21:00:00 7.1 0 Calma 7 Norte 0 1020.6 1.3 84
2020-01-12 20:00:00 8.3 4 Norte 5 Norte 0 1020.6 1.7 82
2020-01-12 19:00:00 9.6 3 Este 8 Nordeste 0 1020.1 1.1 78
2020-01-12 18:00:00 11.4 3 Este 13 Sudeste 0 1019.3 0.5 72
2020-01-12 17:00:00 12.9 5 Sudeste 11 Nordeste 0 1018.9 0 63
2020-01-12 16:00:00 14.1 7 Este 18 Este 0 1019 -0.5 61
2020-01-12 15:00:00 14.2 9 Este 21 Este 0 1018.8 -1.6 62
2020-01-12 14:00:00 14.2 10 Este 24 Este 0 1018.9 -1.5 66
2020-01-12 13:00:00 13.8 14 Nordeste 25 Este 0 1019.5 -0.3 65
2020-01-12 12:00:00 12.9 13 Nordeste 23 Nordeste 0 1020.4 0.9 67
2020-01-12 11:00:00 10.6 8 Nordeste 14 Nordeste 0 1020.4 0.9 63
2020-01-12 10:00:00 6.5 3 Noroeste 12 Noroeste 0 1019.8 0.3 67
2020-01-12 09:00:00 3.4 4 Oeste 8 Oeste 0 1019.5 -0.1 76
2020-01-12 08:00:00 2.6 3 Noroeste 10 Noroeste 0 1019.5 -0.3 84
2020-01-12 07:00:00 3.3 4 Oeste 10 Oeste 0 1019.5 -0.8 80
2020-01-12 06:00:00 3.8 4 Oeste 13 Oeste 0 1019.6 -1.1 80
2020-01-12 05:00:00 4.2 6 Noroeste 10 Noroeste 0 1019.8 -0.9 80
2020-01-12 04:00:00 5 4 Noroeste 10 Noroeste 0 1020.3 -0.7 81
2020-01-12 03:00:00 5.6 4 Noroeste 9 Noroeste 0 1020.7 -0.6 85
2020-01-12 02:00:00 6.2 4 Noroeste 12 Noroeste 0 1020.7 -0.6 87
2020-01-12 01:00:00 5.8 5 Noroeste 11 Noroeste 0 1021 -0.1 90
2020-01-12 00:00:00 6.1 5 Norte 7 Norte 0 1021.3 0.3 89
2020-01-11 23:00:00 6.6 4 Noroeste 6 Noroeste 0 1021.3 0.5 87
2020-01-11 22:00:00 7.3 4 Noroeste 9 Noroeste 0 1021.1 0.6 85
2020-01-11 21:00:00 8 3 Noroeste 7 Noroeste 0 1021 0.9 83
2020-01-11 20:00:00 9.3 2 Oeste 5 Noroeste 0 1020.8 1.1 79
2020-01-11 19:00:00 11.2 3 Este 12 Este 0 1020.5 1.1 74
2020-01-11 18:00:00 12.7 6 Este 17 Este 0 1020.1 0.8 68
2020-01-11 17:00:00 14.1 7 Este 17 Este 0 1019.7 0 58
2020-01-11 16:00:00 15 10 Sudeste 21 Nordeste 0 1019.4 -1.3 53
2020-01-11 15:00:00 16 8 Sudeste 17 Sur 0 1019.3 -1.9 50
2020-01-11 14:00:00 16.7 6 Sudeste 13 Sudeste 0 1019.7 -1.6 41
2020-01-11 13:00:00 15.6 7 Nordeste 16 Noroeste 0 1020.7 0.1 43
2020-01-11 12:00:00 14.7 4 Sur 10 Nordeste 0 1021.2 1.3 48
2020-01-11 11:00:00 12.8 4 Nordeste 12 Norte 0 1021.3 1.8 52
2020-01-11 10:00:00 10.3 5 Norte 10 Norte 0 1020.6 1.5 60
2020-01-11 09:00:00 8.2 5 Norte 10 Norte 0 1019.9 1.3 66
2020-01-11 08:00:00 8.4 6 Noroeste 16 Norte 0 1019.5 1 65
2020-01-11 07:00:00 9.3 8 Norte 19 Norte 0 1019.1 0.9 65
2020-01-11 06:00:00 8.9 4 Nordeste 9 Norte 0 1018.6 0.8 73
2020-01-11 05:00:00 9.4 5 Norte 12 Norte 0 1018.5 1 72
2020-01-11 04:00:00 10.6 5 Norte 14 Norte 0 1018.2 0.3 69
2020-01-11 03:00:00 10.9 5 Noroeste 15 Norte 0 1017.8 -0.4 70
2020-01-11 02:00:00 11.2 8 Norte 18 Norte 0 1017.5 -0.1 67
2020-01-11 01:00:00 11.4 8 Norte 18 Norte 0 1017.9 0.3 67
2020-01-11 00:00:00 10.8 4 Norte 13 Norte 0 1018.2 1.2 72
2020-01-10 23:00:00 10.6 4 Norte 13 Norte 0 1017.6 1.2 74
2020-01-10 22:00:00 10.7 2 Noroeste 18 Norte 0 1017.6 1.7 77
2020-01-10 21:00:00 10.9 9 Norte 28 Norte 0 1017 1.8 69
2020-01-10 20:00:00 11 16 Norte 33 Norte 0 1016.4 2.2 65
2020-01-10 19:00:00 11.2 12 Norte 35 Norte 0 1015.9 1.9 66
2020-01-10 18:00:00 12.5 15 Norte 39 Norte 0 1015.2 1.4 58
2020-01-10 17:00:00 14.5 17 Nordeste 33 Norte 0 1014.2 0.5 44
2020-01-10 16:00:00 16 13 Norte 32 Norte 0 1014 -0.2 37
2020-01-10 15:00:00 14.6 10 Sudeste 25 Sudeste 0 1013.8 -1.3 63
2020-01-10 14:00:00 16.9 3 Norte 15 Oeste 0 1013.7 -1.3 47
2020-01-10 13:00:00 15.2 8 Sudoeste 14 Sudoeste 0 1014.2 -0.6 64
2020-01-10 12:00:00 12.6 4 Sudoeste 10 Oeste 0 1015.1 1.9 78
2020-01-10 11:00:00 11.7 3 Oeste 15 Nordeste 0 1015 2.3 83
2020-01-10 10:00:00 10.5 7 Nordeste 14 Nordeste 0 1014.8 1.9 81
2020-01-10 09:00:00 6.7 4 Norte 10 Norte 0 1013.2 0.2 87
2020-01-10 08:00:00 5.5 2 Norte 6 Noroeste 0 1012.7 -0.6 91
2020-01-10 07:00:00 6 2 Sur 6 Oeste 0 1012.9 -1.1 89
2020-01-10 06:00:00 6.4 3 Noroeste 9 Noroeste 0 1013 -1.6 88
2020-01-10 05:00:00 6.5 5 Oeste 12 Oeste 0 1013.3 -1.3 89
2020-01-10 04:00:00 5.9 5 Oeste 10 Oeste 0 1014 -1 91
2020-01-10 03:00:00 6.2 4 Noroeste 9 Noroeste 0 1014.6 -1.4 90
2020-01-10 02:00:00 6.1 4 Oeste 8 Noroeste 0 1014.6 -1.3 92
2020-01-10 01:00:00 6.3 3 Noroeste 6 Oeste 0 1015 -1.1 91
2020-01-10 00:00:00 6.9 3 Oeste 6 Noroeste 0 1016 -1 88
2020-01-09 23:00:00 8 3 Noroeste 5 Noroeste 0 1015.9 -1.2 87
2020-01-09 22:00:00 8.6 3 Noroeste 7 Noroeste 0 1016.1 -0.2 85
2020-01-09 21:00:00 8.8 3 Oeste 8 Oeste 0 1017 1 84
2020-01-09 20:00:00 9.5 3 Noroeste 6 Noroeste 0 1017.1 1.1 85
2020-01-09 19:00:00 11.1 2 Noroeste 13 Sur 0 1016.3 0.1 79
2020-01-09 18:00:00 12.6 6 Sur 19 Sudeste 0 1016 -0.4 74
2020-01-09 17:00:00 13.9 8 Sudeste 17 Sudeste 0 1016 -0.9 66
2020-01-09 16:00:00 15.5 8 Sudeste 18 Sudeste 0 1016.2 -1.8 57
2020-01-09 15:00:00 16.9 10 Sur 16 Sudeste 0 1016.4 -2.7 53
2020-01-09 14:00:00 16.6 5 Oeste 12 Sudoeste 0 1016.9 -2.4 49
2020-01-09 13:00:00 15.8 5 Oeste 10 Sudoeste 0 1018 -0.9 54
2020-01-09 12:00:00 14.2 3 Sudoeste 7 Sudoeste 0 1019.1 0.4 61
2020-01-09 11:00:00 11.2 4 Noroeste 10 Noroeste 0 1019.3 0.5 76
2020-01-09 10:00:00 8.4 4 Noroeste 11 Noroeste 0 1018.9 0 85
2020-01-09 09:00:00 6.5 5 Noroeste 11 Noroeste 0 1018.7 -0.1 88
2020-01-09 08:00:00 7.3 7 Noroeste 13 Noroeste 0 1018.8 -0.1 87
2020-01-09 07:00:00 7.2 5 Noroeste 12 Noroeste 0 1018.9 -0.7 91
2020-01-09 06:00:00 6.5 5 Noroeste 10 Oeste 0 1018.8 -1.2 93
2020-01-09 05:00:00 5.9 5 Noroeste 9 Noroeste 0 1018.9 -1.2 95
2020-01-09 04:00:00 6 5 Noroeste 10 Noroeste 0 1019.6 -0.7 93
2020-01-09 03:00:00 6.2 5 Noroeste 9 Noroeste 0 1020 -0.6 95
2020-01-09 02:00:00 6.2 4 Noroeste 9 Noroeste 0 1020.1 -0.7 96
2020-01-09 01:00:00 6.2 3 Noroeste 6 Noroeste 0 1020.3 -0.5 93
2020-01-09 00:00:00 6.9 2 Oeste 7 Noroeste 0 1020.6 0 91
2020-01-08 23:00:00 7.5 3 Noroeste 6 Oeste 0 1020.8 0.4 90
2020-01-08 22:00:00 7.7 4 Oeste 7 Noroeste 0 1020.8 0.4 92
2020-01-08 21:00:00 7.8 4 Noroeste 5 Noroeste 0 1020.6 0.7 90
2020-01-08 20:00:00 9 2 Noroeste 5 Noroeste 0 1020.4 0.8 90
2020-01-08 19:00:00 10.3 3 Sur 5 Sur 0 1020.4 0.8 88
2020-01-08 18:00:00 12.3 0 Calma 5 Este 0 1019.9 0 80
2020-01-08 17:00:00 13.8 4 Este 12 Este 0 1019.6 -0.6 74
2020-01-08 16:00:00 14.5 5 Este 13 Nordeste 0 1019.6 -0.9 70
2020-01-08 15:00:00 13.7 6 Nordeste 18 Este 0 1019.9 -1 73
2020-01-08 14:00:00 13.6 8 Este 16 Sudeste 0 1020.2 -0.6 74
2020-01-08 13:00:00 14.1 6 Sudeste 17 Nordeste 0 1020.5 0.3 72
2020-01-08 12:00:00 13 8 Este 18 Este 0 1020.9 1.7 71
2020-01-08 11:00:00 11.4 8 Este 17 Este 0 1020.8 2.3 81
2020-01-08 10:00:00 5.9 4 Norte 7 Noroeste 0 1020.2 2.2 85
2020-01-08 09:00:00 2.8 4 Noroeste 5 Noroeste 0 1019.2 1.4 93
2020-01-08 08:00:00 2.8 4 Noroeste 6 Noroeste 0 1018.5 0.5 93
2020-01-08 07:00:00 2.9 4 Norte 7 Noroeste 0 1018 -0.2 93
2020-01-08 06:00:00 3.1 3 Oeste 10 Noroeste 0 1017.8 -0.7 93
2020-01-08 05:00:00 3.3 4 Noroeste 8 Noroeste 0 1018 -0.6 94
2020-01-08 04:00:00 3.4 3 Oeste 6 Noroeste 0 1018.2 -0.8 94
2020-01-08 03:00:00 3.7 2 Noroeste 5 Oeste 0 1018.5 -1 94
2020-01-08 02:00:00 4.3 2 Noroeste 5 Noroeste 0 1018.6 -1.2 93
2020-01-08 01:00:00 5.2 3 Noroeste 7 Noroeste 0 1019 -1.2 93
2020-01-08 00:00:00 5.4 4 Noroeste 7 Oeste 0 1019.5 -0.7 93
2020-01-07 23:00:00 5.7 4 Noroeste 5 Noroeste 0 1019.8 -0.4 92
2020-01-07 22:00:00 6.6 3 Noroeste 5 Oeste 0 1020.2 0.2 90
2020-01-07 21:00:00 7.6 3 Noroeste 4 Noroeste 0 1020.2 0.5 89
2020-01-07 20:00:00 8.7 3 Noroeste 5 Noroeste 0 1020.2 0.6 88
2020-01-07 19:00:00 10.2 4 Oeste 9 Sudoeste 0 1020 0.4 83
2020-01-07 18:00:00 11.9 5 Sur 9 Sur 0 1019.7 -0.1 78
2020-01-07 17:00:00 13.3 5 Sur 14 Sur 0 1019.6 -0.6 71
2020-01-07 16:00:00 15 7 Sur 14 Sudeste 0 1019.6 -1.6 65
2020-01-07 15:00:00 15 8 Sudeste 15 Sudeste 0 1019.8 -2.3 70
2020-01-07 14:00:00 15.4 8 Sudeste 14 Sur 0 1020.2 -2.3 67
2020-01-07 13:00:00 14.8 6 Sudoeste 11 Sur 0 1021.2 -1.1 70
2020-01-07 12:00:00 13.2 4 Sur 10 Oeste 0 1022.1 0.6 75
2020-01-07 11:00:00 10.5 5 Oeste 12 Noroeste 0 1022.5 1.1 86
2020-01-07 10:00:00 7.4 4 Oeste 8 Noroeste 0 1022.3 1.1 93
2020-01-07 09:00:00 4.3 4 Noroeste 5 Noroeste 0 1021.5 0.8 97
2020-01-07 08:00:00 4 2 Noroeste 6 Noroeste 0 1021.4 0.6 95
2020-01-07 07:00:00 3.7 3 Noroeste 6 Norte 0 1021.2 0.4 96
2020-01-07 06:00:00 3.9 4 Noroeste 9 Noroeste 0 1020.7 -0.1 94
2020-01-07 05:00:00 3.9 4 Noroeste 7 Noroeste 0 1020.8 0 95
2020-01-07 04:00:00 4.3 4 Noroeste 7 Oeste 0 1020.8 0.2 95
2020-01-07 03:00:00 4.3 4 Noroeste 6 Noroeste 0 1020.8 0.3 95
2020-01-07 02:00:00 4.6 3 Noroeste 6 Noroeste 0 1020.8 0.4 94
2020-01-07 01:00:00 4.9 3 Noroeste 5 Noroeste 0 1020.6 0.6 93
2020-01-07 00:00:00 5.5 3 Noroeste 8 Noroeste 0 1020.5 0.7 91
2020-01-06 23:00:00 6.3 4 Noroeste 8 Norte 0 1020.4 1 91
2020-01-06 22:00:00 6.6 4 Noroeste 7 Noroeste 0 1020 1 89
2020-01-06 21:00:00 7.7 4 Noroeste 8 Noroeste 0 1019.8 1 89
2020-01-06 20:00:00 8.6 3 Noroeste 4 Oeste 0 1019.4 0.7 88
2020-01-06 19:00:00 10.1 0 Calma 7 Sur 0 1019 0.7 83
2020-01-06 18:00:00 12.1 4 Sur 14 Sur 0 1018.8 0.5 76
2020-01-06 17:00:00 13.6 8 Sur 17 Sur 0 1018.7 0.1 69
2020-01-06 16:00:00 15.3 9 Sur 19 Sur 0 1018.3 -1.3 64
2020-01-06 15:00:00 15.8 9 Sur 19 Sur 0 1018.3 -2.1 61
2020-01-06 14:00:00 15.8 9 Sur 19 Sur 0 1018.6 -2 60
2020-01-06 13:00:00 15.4 7 Sur 14 Sur 0 1019.6 -0.9 63
2020-01-06 12:00:00 13.6 5 Sudoeste 9 Sudoeste 0 1020.4 0.4 69
2020-01-06 11:00:00 10 3 Oeste 7 Noroeste 0 1020.6 1.2 67
2020-01-06 10:00:00 6 3 Noroeste 10 Noroeste 0 1020.5 1.4 72